createdAt,value
2023-02-04T00:00:07.969Z,11.60
2023-02-04T00:02:53.544Z,11.70
2023-02-04T00:05:42.859Z,11.60
2023-02-04T00:08:38.146Z,11.70
2023-02-04T00:11:21.815Z,11.70
2023-02-04T00:14:12.867Z,11.70
2023-02-04T00:16:55.829Z,11.70
2023-02-04T00:19:48.872Z,11.60
2023-02-04T00:22:34.273Z,11.50
2023-02-04T00:25:26.906Z,11.60
2023-02-04T00:28:13.145Z,11.50
2023-02-04T00:30:57.829Z,11.50
2023-02-04T00:33:48.944Z,11.60
2023-02-04T00:36:35.786Z,11.60
2023-02-04T00:39:27.890Z,11.70
2023-02-04T00:42:12.910Z,11.70
2023-02-04T00:45:06.240Z,11.80
2023-02-04T00:47:48.851Z,11.80
2023-02-04T00:50:41.829Z,11.80
2023-02-04T00:53:36.013Z,11.80
2023-02-04T00:56:22.114Z,11.80
2023-02-04T00:59:12.847Z,11.80
2023-02-04T01:01:57.130Z,11.90
2023-02-04T01:04:46.854Z,11.80
2023-02-04T01:07:33.152Z,11.80
2023-02-04T01:10:22.892Z,11.80
2023-02-04T01:13:09.075Z,11.90
2023-02-04T01:16:00.908Z,11.80
2023-02-04T01:18:54.188Z,11.80
2023-02-04T01:21:38.448Z,11.90
2023-02-04T01:24:28.954Z,11.80
2023-02-04T01:27:34.301Z,11.80
2023-02-04T01:30:26.968Z,11.70
2023-02-04T01:33:09.860Z,11.70
2023-02-04T01:36:00.860Z,11.60
2023-02-04T01:38:44.973Z,11.70
2023-02-04T01:41:37.941Z,11.70
2023-02-04T01:44:27.903Z,11.70
2023-02-04T01:47:15.094Z,11.70
2023-02-04T01:50:04.870Z,11.70
2023-02-04T01:53:03.870Z,11.70
2023-02-04T01:55:55.887Z,11.70
2023-02-04T01:58:43.199Z,11.60
2023-02-04T02:01:45.968Z,11.80
2023-02-04T02:04:45.878Z,11.90
2023-02-04T02:07:29.846Z,11.90
2023-02-04T02:10:23.913Z,11.90
2023-02-04T02:13:10.197Z,12.00
2023-02-04T02:16:02.859Z,11.80
2023-02-04T02:18:51.668Z,11.70
2023-02-04T02:21:54.964Z,11.30
2023-02-04T02:24:40.273Z,11.30
2023-02-04T02:27:31.861Z,11.30
2023-02-04T02:30:23.892Z,11.40
2023-02-04T02:33:11.580Z,11.40
2023-02-04T02:36:02.894Z,11.20
2023-02-04T02:38:48.132Z,10.90
2023-02-04T02:41:41.908Z,11.10
2023-02-04T02:44:26.122Z,11.30
2023-02-04T02:47:22.875Z,11.40
2023-02-04T02:50:06.129Z,11.20
2023-02-04T02:52:56.956Z,11.10
2023-02-04T02:55:47.985Z,11.20
2023-02-04T02:58:37.404Z,11.10
2023-02-04T03:01:27.937Z,11.20
2023-02-04T03:04:11.506Z,11.20
2023-02-04T03:07:02.871Z,11.00
2023-02-04T03:09:46.911Z,10.80
2023-02-04T03:12:37.882Z,10.80
2023-02-04T03:15:22.286Z,10.90
2023-02-04T03:18:16.884Z,10.80
2023-02-04T03:21:06.879Z,10.80
2023-02-04T03:23:51.399Z,10.50
2023-02-04T03:26:43.949Z,10.40
2023-02-04T03:29:29.805Z,10.30
2023-02-04T03:32:22.954Z,10.20
2023-02-04T03:35:07.105Z,10.20
2023-02-04T03:37:59.021Z,10.20
2023-02-04T03:40:41.120Z,10.20
2023-02-04T03:43:30.140Z,10.20
2023-02-04T03:46:14.136Z,10.30
2023-02-04T03:49:08.058Z,10.40
2023-02-04T03:51:58.891Z,10.50
2023-02-04T03:54:42.173Z,10.50
2023-02-04T03:57:30.946Z,10.60
2023-02-04T04:00:14.520Z,10.70
2023-02-04T04:03:05.056Z,10.80
2023-02-04T04:05:49.273Z,10.90
2023-02-04T04:08:37.925Z,11.00
2023-02-04T04:11:21.992Z,11.00
2023-02-04T04:14:12.928Z,11.00
2023-02-04T04:17:01.938Z,11.10
2023-02-04T04:19:45.087Z,11.10
2023-02-04T04:22:39.044Z,11.10
2023-02-04T04:25:23.241Z,11.10
2023-02-04T04:28:14.031Z,11.20
2023-02-04T04:30:58.315Z,11.20
2023-02-04T04:33:46.936Z,11.30
2023-02-04T04:36:30.638Z,11.40
2023-02-04T04:39:25.003Z,11.50
2023-02-04T04:42:18.053Z,11.30
2023-02-04T04:45:00.036Z,11.30
2023-02-04T04:47:49.070Z,11.40
2023-02-04T04:50:32.500Z,11.60
2023-02-04T04:53:21.063Z,11.60
2023-02-04T04:56:05.393Z,11.70
2023-02-04T04:58:54.883Z,11.60
2023-02-04T05:01:39.471Z,11.70
2023-02-04T05:04:30.014Z,11.60
2023-02-04T05:07:20.934Z,11.70
2023-02-04T05:10:04.179Z,11.60
2023-02-04T05:12:55.937Z,11.70
2023-02-04T05:15:38.196Z,11.70
2023-02-04T05:18:26.976Z,11.70
2023-02-04T05:21:09.203Z,11.70
2023-02-04T05:23:57.105Z,11.70
2023-02-04T05:26:40.225Z,11.70
2023-02-04T05:29:29.927Z,11.70
2023-02-04T05:32:20.949Z,11.60
2023-02-04T05:35:05.602Z,11.70
2023-02-04T05:37:55.024Z,11.80
2023-02-04T05:40:36.972Z,11.70
2023-02-04T05:43:26.033Z,11.60
2023-02-04T05:46:11.738Z,11.60
2023-02-04T05:49:05.244Z,11.70
2023-02-04T05:52:02.980Z,11.70
2023-02-04T05:54:55.251Z,11.70
2023-02-04T05:57:43.920Z,11.80
2023-02-04T06:00:30.127Z,11.90
2023-02-04T06:03:21.965Z,11.70
2023-02-04T06:06:07.862Z,11.70
2023-02-04T06:08:59.022Z,11.80
2023-02-04T06:11:42.915Z,11.80
2023-02-04T06:14:32.950Z,11.90
2023-02-04T06:17:16.973Z,11.90
2023-02-04T06:20:16.039Z,11.90
2023-02-04T06:23:05.927Z,11.80
2023-02-04T06:25:50.383Z,11.80
2023-02-04T06:28:40.942Z,11.90
2023-02-04T06:31:25.261Z,12.00
2023-02-04T06:34:14.952Z,12.00
2023-02-04T06:37:04.158Z,11.90
2023-02-04T06:39:55.011Z,11.90
2023-02-04T06:42:39.125Z,11.90
2023-02-04T06:45:28.953Z,11.90
2023-02-04T06:48:19.960Z,11.90
2023-02-04T06:51:06.281Z,11.90
2023-02-04T06:54:12.941Z,11.90
2023-02-04T06:57:06.673Z,11.90
2023-02-04T06:59:56.978Z,11.90
2023-02-04T07:02:40.264Z,11.90
2023-02-04T07:05:32.017Z,11.80
2023-02-04T07:08:22.042Z,11.70
2023-02-04T07:11:07.206Z,11.70
2023-02-04T07:13:59.964Z,11.70
2023-02-04T07:16:43.237Z,11.70
2023-02-04T07:19:31.978Z,11.80
2023-02-04T07:22:16.215Z,11.80
2023-02-04T07:25:05.051Z,11.90
2023-02-04T07:27:51.489Z,11.90
2023-02-04T07:30:41.043Z,11.90
2023-02-04T07:33:33.995Z,11.90
2023-02-04T07:36:17.982Z,11.90
2023-02-04T07:39:09.027Z,12.00
2023-02-04T07:41:52.052Z,11.90
2023-02-04T07:44:53.032Z,11.70
2023-02-04T07:47:36.006Z,11.80
2023-02-04T07:50:26.279Z,11.80
2023-02-04T07:53:10.033Z,11.80
2023-02-04T07:56:02.028Z,11.80
2023-02-04T07:58:51.971Z,11.90
2023-02-04T08:01:38.265Z,11.70
2023-02-04T08:04:29.973Z,11.70
2023-02-04T08:07:14.196Z,11.70
2023-02-04T08:10:04.011Z,11.80
2023-02-04T08:12:48.176Z,11.90
2023-02-04T08:15:39.022Z,11.80
2023-02-04T08:18:25.701Z,11.80
2023-02-04T08:21:10.982Z,11.90
2023-02-04T08:24:05.295Z,11.90
2023-02-04T08:26:51.106Z,12.00
2023-02-04T08:29:42.993Z,12.00
2023-02-04T08:32:29.248Z,12.10
2023-02-04T08:35:22.080Z,12.10
2023-02-04T08:38:05.236Z,12.00
2023-02-04T08:40:56.981Z,12.00
2023-02-04T08:43:48.957Z,12.00
2023-02-04T08:46:33.020Z,12.20
2023-02-04T08:49:24.996Z,12.30
2023-02-04T08:52:24.053Z,12.50
2023-02-04T08:55:15.138Z,12.30
2023-02-04T08:58:01.358Z,12.40
2023-02-04T09:00:51.082Z,12.40
2023-02-04T09:03:41.272Z,12.40
2023-02-04T09:06:32.093Z,12.40
2023-02-04T09:09:26.384Z,12.30
2023-02-04T09:12:09.980Z,12.30
2023-02-04T09:15:01.115Z,12.10
2023-02-04T09:17:44.938Z,11.90
2023-02-04T09:20:37.137Z,11.90
2023-02-04T09:23:20.521Z,11.90
2023-02-04T09:26:14.054Z,11.90
2023-02-04T09:29:04.023Z,12.00
2023-02-04T09:31:49.826Z,12.10
2023-02-04T09:34:41.018Z,12.20
2023-02-04T09:37:27.024Z,12.20
2023-02-04T09:40:24.084Z,12.00
2023-02-04T09:43:13.224Z,12.00
2023-02-04T09:46:04.114Z,11.90
2023-02-04T09:48:48.290Z,12.00
2023-02-04T09:51:44.148Z,12.00
2023-02-04T09:54:40.066Z,12.00
2023-02-04T09:57:23.046Z,12.20
2023-02-04T10:00:17.025Z,12.30
2023-02-04T10:03:03.773Z,12.40
2023-02-04T10:05:56.133Z,12.40
2023-02-04T10:08:38.946Z,12.30
2023-02-04T10:11:32.994Z,12.40
2023-02-04T10:14:19.928Z,12.40
2023-02-04T10:17:16.015Z,12.60
2023-02-04T10:20:06.037Z,12.80
2023-02-04T10:22:50.428Z,12.80
2023-02-04T10:25:41.034Z,12.60
2023-02-04T10:28:24.307Z,12.50
2023-02-04T10:31:17.137Z,12.50
2023-02-04T10:34:19.929Z,12.60
2023-02-04T10:37:21.099Z,12.80
2023-02-04T10:40:05.242Z,12.90
2023-02-04T10:43:00.020Z,12.90
2023-02-04T10:45:51.077Z,12.90
2023-02-04T10:48:42.031Z,12.90
2023-02-04T10:51:36.182Z,12.80
2023-02-04T10:54:38.113Z,12.80
2023-02-04T10:57:31.146Z,12.70
2023-02-04T11:00:24.233Z,12.60
2023-02-04T11:03:20.146Z,12.60
2023-02-04T11:06:15.151Z,12.50
2023-02-04T11:09:14.028Z,12.60
2023-02-04T11:15:06.030Z,12.60
2023-02-04T11:17:55.059Z,12.10
2023-02-04T11:20:40.049Z,12.00
2023-02-04T11:23:48.163Z,12.20
2023-02-04T11:26:44.077Z,12.40
2023-02-04T11:29:39.057Z,12.60
2023-02-04T11:32:45.030Z,12.70
2023-02-04T11:35:35.589Z,13.00
2023-02-04T11:38:35.071Z,13.30
2023-02-04T11:41:24.402Z,13.20
2023-02-04T11:44:16.107Z,13.00
2023-02-04T11:47:00.647Z,13.20
2023-02-04T11:49:49.072Z,13.30
2023-02-04T11:52:38.316Z,13.50
2023-02-04T11:55:20.412Z,13.70
2023-02-04T11:58:10.189Z,13.30
2023-02-04T12:00:54.302Z,12.90
2023-02-04T12:03:45.089Z,12.60
2023-02-04T12:06:36.120Z,12.60
2023-02-04T12:09:34.394Z,12.50
2023-02-04T12:12:32.181Z,12.90
2023-02-04T12:15:28.281Z,13.40
2023-02-04T12:18:15.109Z,13.30
2023-02-04T12:20:57.665Z,13.30
2023-02-04T12:23:46.189Z,13.40
2023-02-04T12:26:28.097Z,13.50
2023-02-04T12:29:17.118Z,13.50
2023-02-04T12:31:59.113Z,13.60
2023-02-04T12:34:49.121Z,13.70
2023-02-04T12:37:31.201Z,13.80
2023-02-04T12:40:21.061Z,13.10
2023-02-04T12:43:03.147Z,13.00
2023-02-04T12:45:53.167Z,12.90
2023-02-04T12:48:35.074Z,13.10
2023-02-04T12:51:25.184Z,13.10
2023-02-04T12:54:07.177Z,13.40
2023-02-04T12:56:56.062Z,13.20
2023-02-04T12:59:38.752Z,12.80
2023-02-04T13:02:27.116Z,12.50
2023-02-04T13:05:17.174Z,12.50
2023-02-04T13:08:00.281Z,12.70
2023-02-04T13:10:48.122Z,13.00
2023-02-04T13:13:31.277Z,13.10
2023-02-04T13:16:19.110Z,12.80
2023-02-04T13:19:01.379Z,12.80
2023-02-04T13:21:50.086Z,12.70
2023-02-04T13:24:34.344Z,13.00
2023-02-04T13:27:23.099Z,12.60
2023-02-04T13:30:12.174Z,12.60
2023-02-04T13:32:54.053Z,12.80
2023-02-04T13:35:43.173Z,13.00
2023-02-04T13:38:25.965Z,12.60
2023-02-04T13:41:16.109Z,12.70
2023-02-04T13:43:58.523Z,12.70
2023-02-04T13:46:47.236Z,12.80
2023-02-04T13:49:29.095Z,12.80
2023-02-04T13:52:21.065Z,13.00
2023-02-04T13:55:03.116Z,12.90
2023-02-04T13:57:54.154Z,13.10
2023-02-04T14:00:43.143Z,13.20
2023-02-04T14:03:25.688Z,13.10
2023-02-04T14:06:14.168Z,13.10
2023-02-04T14:08:56.328Z,13.20
2023-02-04T14:11:45.120Z,13.30
2023-02-04T14:14:42.106Z,13.50
2023-02-04T14:17:30.205Z,13.70
2023-02-04T14:20:13.496Z,13.70
2023-02-04T14:23:02.098Z,13.50
2023-02-04T14:25:51.213Z,13.60
2023-02-04T14:28:33.197Z,13.20
2023-02-04T14:31:23.270Z,13.20
2023-02-04T14:34:05.138Z,13.30
2023-02-04T14:36:54.124Z,13.10
2023-02-04T14:39:36.151Z,13.30
2023-02-04T14:42:25.109Z,13.30
2023-02-04T14:45:08.429Z,13.40
2023-02-04T14:47:59.242Z,13.50
2023-02-04T14:50:54.194Z,13.40
2023-02-04T14:53:36.145Z,13.50
2023-02-04T14:56:25.221Z,13.60
2023-02-04T14:59:07.082Z,13.70
2023-02-04T15:01:56.122Z,13.60
2023-02-04T15:04:40.484Z,13.60
2023-02-04T15:07:29.210Z,13.60
2023-02-04T15:10:15.349Z,13.50
2023-02-04T15:13:04.227Z,13.40
2023-02-04T15:15:53.137Z,13.30
2023-02-04T15:18:35.339Z,13.40
2023-02-04T15:21:25.166Z,13.30
2023-02-04T15:24:07.301Z,13.30
2023-02-04T15:26:57.134Z,13.30
2023-02-04T15:29:39.922Z,13.40
2023-02-04T15:32:27.143Z,13.40
2023-02-04T15:35:09.537Z,13.40
2023-02-04T15:37:59.161Z,13.40
2023-02-04T15:40:41.365Z,13.30
2023-02-04T15:43:30.118Z,13.30
2023-02-04T15:46:20.279Z,13.20
2023-02-04T15:49:02.707Z,13.10
2023-02-04T15:51:51.220Z,13.10
2023-02-04T15:54:34.533Z,13.20
2023-02-04T15:57:23.271Z,13.20
2023-02-04T16:00:05.925Z,13.10
2023-02-04T16:02:54.300Z,13.10
2023-02-04T16:05:36.244Z,13.10
2023-02-04T16:08:25.330Z,13.00
2023-02-04T16:11:15.177Z,13.00
2023-02-04T16:14:10.232Z,13.10
2023-02-04T16:16:58.247Z,13.00
2023-02-04T16:19:40.410Z,13.00
2023-02-04T16:22:28.212Z,12.90
2023-02-04T16:25:10.443Z,12.90
2023-02-04T16:28:00.240Z,12.80
2023-02-04T16:30:42.431Z,12.80
2023-02-04T16:33:31.159Z,12.70
2023-02-04T16:36:18.455Z,12.60
2023-02-04T16:39:06.167Z,12.30
2023-02-04T16:41:55.260Z,12.30
2023-02-04T16:44:40.345Z,12.20
2023-02-04T16:47:29.152Z,12.20
2023-02-04T16:50:12.236Z,12.20
2023-02-04T16:53:01.142Z,12.10
2023-02-04T16:55:43.553Z,12.10
2023-02-04T16:58:33.192Z,12.10
2023-02-04T17:01:17.373Z,12.10
2023-02-04T17:04:06.231Z,12.00
2023-02-04T17:06:55.152Z,12.00
2023-02-04T17:09:38.784Z,12.00
2023-02-04T17:12:26.188Z,12.10
2023-02-04T17:15:15.451Z,12.20
2023-02-04T17:17:58.240Z,12.20
2023-02-04T17:20:40.833Z,12.10
2023-02-04T17:23:29.190Z,11.90
2023-02-04T17:26:12.336Z,11.80
2023-02-04T17:29:01.189Z,11.90
2023-02-04T17:31:43.893Z,11.80
2023-02-04T17:34:33.205Z,11.90
2023-02-04T17:37:21.178Z,11.90
2023-02-04T17:40:03.486Z,11.80
2023-02-04T17:42:52.191Z,11.90
2023-02-04T17:45:34.723Z,11.90
2023-02-04T17:48:24.214Z,11.80
2023-02-04T17:51:07.653Z,11.80
2023-02-04T17:53:55.165Z,11.80
2023-02-04T17:56:37.737Z,11.90
2023-02-04T17:59:26.294Z,11.90
2023-02-04T18:02:08.816Z,11.90
2023-02-04T18:04:58.180Z,11.90
2023-02-04T18:07:48.222Z,11.90
2023-02-04T18:10:33.075Z,11.90
2023-02-04T18:13:28.152Z,12.00
2023-02-04T18:16:20.642Z,12.20
2023-02-04T18:19:11.266Z,12.20
2023-02-04T18:21:53.407Z,12.00
2023-02-04T18:24:49.200Z,11.90
2023-02-04T18:27:32.720Z,12.00
2023-02-04T18:30:34.635Z,11.80
2023-02-04T18:33:19.414Z,11.80
2023-02-04T18:36:18.202Z,11.80
2023-02-04T18:39:07.270Z,11.80
2023-02-04T18:41:58.433Z,11.80
2023-02-04T18:44:47.206Z,11.70
2023-02-04T18:47:37.832Z,11.70
2023-02-04T18:50:33.536Z,11.80
2023-02-04T18:53:29.493Z,11.70
2023-02-04T18:56:25.189Z,11.70
2023-02-04T18:59:08.455Z,11.70
2023-02-04T19:01:57.245Z,11.70
2023-02-04T19:04:41.444Z,11.70
2023-02-04T19:07:29.205Z,11.70
2023-02-04T19:10:39.231Z,11.70
2023-02-04T19:13:36.309Z,11.80
2023-02-04T19:16:30.265Z,11.80
2023-02-04T19:19:40.410Z,11.60
2023-02-04T19:22:37.819Z,11.60
2023-02-04T19:25:36.544Z,11.60
2023-02-04T19:28:35.292Z,11.60
2023-02-04T19:31:24.313Z,11.70
2023-02-04T19:34:24.524Z,11.60
2023-02-04T19:37:13.826Z,11.60
2023-02-04T19:39:56.114Z,11.60
2023-02-04T19:42:48.310Z,11.70
2023-02-04T19:45:30.281Z,11.70
2023-02-04T19:48:31.256Z,11.60
2023-02-04T19:51:28.109Z,11.60
2023-02-04T19:54:31.228Z,11.60
2023-02-04T19:57:29.198Z,11.70
2023-02-04T20:00:44.749Z,11.70
2023-02-04T20:03:42.246Z,11.60
2023-02-04T20:06:50.510Z,11.30
2023-02-04T20:09:42.383Z,11.30
2023-02-04T20:12:25.425Z,11.30
2023-02-04T20:15:25.314Z,11.40
2023-02-04T20:18:07.750Z,11.40
2023-02-04T20:20:55.216Z,11.40
2023-02-04T20:23:40.393Z,11.50
2023-02-04T20:26:28.254Z,11.50
2023-02-04T20:29:13.491Z,11.60
2023-02-04T20:32:02.232Z,11.60
2023-02-04T20:34:44.440Z,11.60
2023-02-04T20:37:35.339Z,11.60
2023-02-04T20:40:26.498Z,11.40
2023-02-04T20:43:20.255Z,11.30
2023-02-04T20:46:07.517Z,11.20
2023-02-04T20:48:56.305Z,11.30
2023-02-04T20:51:41.475Z,11.30
2023-02-04T20:54:30.239Z,11.10
2023-02-04T20:57:25.502Z,11.20
2023-02-04T21:00:21.257Z,11.30
2023-02-04T21:03:07.422Z,11.20
2023-02-04T21:05:56.304Z,11.00
2023-02-04T21:08:43.465Z,11.10
2023-02-04T21:11:33.280Z,11.00
2023-02-04T21:14:30.239Z,11.10
2023-02-04T21:17:12.366Z,11.00
2023-02-04T21:20:01.280Z,11.10
2023-02-04T21:22:43.321Z,11.10
2023-02-04T21:25:32.699Z,11.00
2023-02-04T21:28:14.514Z,11.00
2023-02-04T21:31:04.489Z,11.10
2023-02-04T21:33:46.404Z,11.10
2023-02-04T21:36:35.285Z,11.00
2023-02-04T21:39:17.383Z,11.10
2023-02-04T21:42:17.340Z,11.00
2023-02-04T21:45:08.310Z,11.00
2023-02-04T21:47:51.526Z,11.00
2023-02-04T21:50:40.439Z,11.10
2023-02-04T21:53:22.581Z,11.10
2023-02-04T21:56:11.271Z,11.00
2023-02-04T21:58:53.970Z,11.10
2023-02-04T22:01:42.291Z,11.00
2023-02-04T22:04:25.547Z,11.00
2023-02-04T22:07:14.293Z,11.00
2023-02-04T22:09:56.552Z,11.00
2023-02-04T22:12:45.347Z,11.00
2023-02-04T22:15:40.276Z,11.00
2023-02-04T22:18:22.293Z,11.00
2023-02-04T22:21:12.298Z,11.00
2023-02-04T22:23:54.312Z,11.00
2023-02-04T22:26:43.378Z,10.90
2023-02-04T22:29:30.192Z,10.90
2023-02-04T22:32:20.266Z,11.00
2023-02-04T22:35:02.316Z,11.20
2023-02-04T22:37:54.293Z,11.20
2023-02-04T22:40:42.294Z,11.10
2023-02-04T22:43:24.549Z,11.00
2023-02-04T22:46:13.369Z,11.00
2023-02-04T22:48:55.540Z,11.00
2023-02-04T22:51:43.339Z,10.90
2023-02-04T22:54:26.559Z,10.80
2023-02-04T22:57:14.273Z,10.80
2023-02-04T22:59:56.539Z,10.80
2023-02-04T23:02:45.352Z,10.80
2023-02-04T23:05:27.453Z,10.80
2023-02-04T23:08:15.284Z,10.80
2023-02-04T23:11:05.299Z,10.90
2023-02-04T23:14:01.301Z,10.80
2023-02-04T23:16:49.296Z,10.80
2023-02-04T23:19:31.587Z,10.80
2023-02-04T23:22:21.378Z,10.80
2023-02-04T23:25:06.213Z,10.80
2023-02-04T23:27:56.350Z,10.80
2023-02-04T23:30:39.274Z,10.90
2023-02-04T23:33:27.356Z,10.90
2023-02-04T23:36:16.283Z,10.90
2023-02-04T23:38:59.402Z,10.80
2023-02-04T23:41:48.342Z,10.70
2023-02-04T23:44:31.710Z,10.80
2023-02-04T23:47:20.353Z,11.00
2023-02-04T23:50:02.229Z,10.90
2023-02-04T23:52:51.396Z,10.90
2023-02-04T23:55:33.883Z,10.80
2023-02-04T23:58:23.353Z,10.90
